Cachoeiras de Macacu, Brazil
Current Conditions -  °F | °C
As of 7:00 PM on Tuesday 27 Jan 2015 (Local Time) from SBES Reporting Station
Scattered Clouds Scattered Clouds  
Wind Chill: 79°   Ceiling: Unl
Heat Index: 82°   Visibility: 6mi
Dew Point: 72°   Wind: 16mph
Humidity: 78%   Direction: 60°ENE
Pressure: 29.88"   Gusts: NA
Location:  22.46°S, 42.65°W
Report Text: SBES 272100Z 06014KT 9999 SCT020TCU SCT080 26/22 Q1012
Loading
Personal Weather Stations






























Interactive Weather Map New forecast layout! Learn more

10-Day Weather Forecast

Advertisements
Track Severe Weather on mobile